createdAt,value
2023-12-26T00:02:17.641Z,71.11
2023-12-26T00:04:44.351Z,70.48
2023-12-26T00:07:11.099Z,70.05
2023-12-26T00:09:43.829Z,70.16
2023-12-26T00:12:10.612Z,71.36
2023-12-26T00:14:38.277Z,71.48
2023-12-26T00:17:05.018Z,70.84
2023-12-26T00:19:31.795Z,71.24
2023-12-26T00:21:58.569Z,71.29
2023-12-26T00:24:25.258Z,70.69
2023-12-26T00:26:52.022Z,71.38
2023-12-26T00:29:18.756Z,71.38
2023-12-26T00:31:45.495Z,70.79
2023-12-26T00:34:12.351Z,70.50
2023-12-26T00:36:39.172Z,71.03
2023-12-26T00:39:06.939Z,71.84
2023-12-26T00:41:35.555Z,70.60
2023-12-26T00:44:02.220Z,70.84
2023-12-26T00:46:28.991Z,70.86
2023-12-26T00:48:55.833Z,70.79
2023-12-26T00:51:23.645Z,70.67
2023-12-26T00:53:50.388Z,71.15
2023-12-26T00:56:17.401Z,71.24
2023-12-26T00:58:45.280Z,70.73
2023-12-26T01:01:12.152Z,70.17
2023-12-26T01:03:39.145Z,71.14
2023-12-26T01:06:06.160Z,71.06
2023-12-26T01:08:34.415Z,72.18
2023-12-26T01:11:01.145Z,72.03
2023-12-26T01:13:31.259Z,72.14
2023-12-26T01:15:57.993Z,71.50
2023-12-26T01:18:24.755Z,71.87
2023-12-26T01:20:51.581Z,70.87
2023-12-26T01:23:18.245Z,71.86
2023-12-26T01:25:45.105Z,70.02
2023-12-26T01:28:11.771Z,70.37
2023-12-26T01:30:41.647Z,70.66
2023-12-26T01:33:08.756Z,70.24
2023-12-26T01:35:35.645Z,73.39
2023-12-26T01:38:02.924Z,71.72
2023-12-26T01:40:29.609Z,70.26
2023-12-26T01:42:56.545Z,71.66
2023-12-26T01:45:23.356Z,69.79
2023-12-26T01:47:52.411Z,69.57
2023-12-26T01:50:19.319Z,70.35
2023-12-26T01:52:46.131Z,70.57
2023-12-26T01:55:14.963Z,69.91
2023-12-26T01:57:42.413Z,70.11
2023-12-26T02:00:09.623Z,70.06
2023-12-26T02:02:39.489Z,70.29
2023-12-26T02:05:06.663Z,71.20
2023-12-26T02:07:33.356Z,70.97
2023-12-26T02:10:01.719Z,71.36
2023-12-26T02:12:28.456Z,72.98
2023-12-26T02:14:55.341Z,73.04
2023-12-26T02:17:25.835Z,71.70
2023-12-26T02:19:53.098Z,70.14
2023-12-26T02:22:19.924Z,70.80
2023-12-26T02:24:48.753Z,70.26
2023-12-26T02:27:24.165Z,70.47
2023-12-26T02:29:53.035Z,70.13
2023-12-26T02:32:20.913Z,69.30
2023-12-26T02:34:48.755Z,69.33
2023-12-26T02:37:15.650Z,71.10
2023-12-26T02:39:44.516Z,70.31
2023-12-26T02:42:12.377Z,71.31
2023-12-26T02:44:39.494Z,69.45
2023-12-26T02:47:06.239Z,68.68
2023-12-26T02:49:32.946Z,70.09
2023-12-26T02:51:59.669Z,70.11
2023-12-26T02:54:26.438Z,69.32
2023-12-26T02:56:53.970Z,70.67
2023-12-26T02:59:20.699Z,71.86
2023-12-26T03:01:47.540Z,71.18
2023-12-26T03:04:14.204Z,72.41
2023-12-26T03:06:41.129Z,73.11
2023-12-26T03:09:08.034Z,72.92
2023-12-26T03:11:34.704Z,73.13
2023-12-26T03:14:01.867Z,71.70
2023-12-26T03:16:28.710Z,71.18
2023-12-26T03:18:55.610Z,70.36
2023-12-26T03:21:22.904Z,71.66
2023-12-26T03:23:51.299Z,70.16
2023-12-26T03:26:18.042Z,69.72
2023-12-26T03:28:44.716Z,70.14
2023-12-26T03:31:14.305Z,70.43
2023-12-26T03:33:41.451Z,70.08
2023-12-26T03:36:09.647Z,69.78
2023-12-26T03:38:37.995Z,68.67
2023-12-26T03:41:04.856Z,69.90
2023-12-26T03:43:32.058Z,70.14
2023-12-26T03:45:58.957Z,70.64
2023-12-26T03:48:25.781Z,69.76
2023-12-26T03:50:52.553Z,70.35
2023-12-26T03:53:19.384Z,71.06
2023-12-26T03:55:47.979Z,69.69
2023-12-26T03:58:16.516Z,69.47
2023-12-26T04:00:43.209Z,68.92
2023-12-26T04:03:10.496Z,68.74
2023-12-26T04:05:37.428Z,69.45
2023-12-26T04:08:05.278Z,69.14
2023-12-26T04:10:32.164Z,68.89
2023-12-26T04:12:58.921Z,69.75
2023-12-26T04:15:25.875Z,68.18
2023-12-26T04:17:53.346Z,68.53
2023-12-26T04:20:20.139Z,68.36
2023-12-26T04:22:46.940Z,68.17
2023-12-26T04:25:13.652Z,69.71
2023-12-26T04:27:40.400Z,69.67
2023-12-26T04:30:07.882Z,69.99
2023-12-26T04:32:35.616Z,69.84
2023-12-26T04:35:02.879Z,68.09
2023-12-26T04:37:29.846Z,67.37
2023-12-26T04:39:56.507Z,69.45
2023-12-26T04:42:23.297Z,69.51
2023-12-26T04:44:50.150Z,68.95
2023-12-26T04:47:17.904Z,68.69
2023-12-26T04:49:44.730Z,68.60
2023-12-26T04:52:11.523Z,69.36
2023-12-26T04:54:38.175Z,68.56
2023-12-26T04:57:05.033Z,68.01
2023-12-26T04:59:31.728Z,68.17
2023-12-26T05:01:58.480Z,68.34
2023-12-26T05:04:25.136Z,69.16
2023-12-26T05:06:52.456Z,68.26
2023-12-26T05:09:19.354Z,68.32
2023-12-26T05:11:46.165Z,69.07
2023-12-26T05:14:12.846Z,70.05
2023-12-26T05:16:45.718Z,71.25
2023-12-26T05:19:13.012Z,70.88
2023-12-26T05:21:39.993Z,71.77
2023-12-26T05:24:07.026Z,70.37
2023-12-26T05:26:41.026Z,71.20
2023-12-26T05:29:08.294Z,69.01
2023-12-26T05:31:34.945Z,69.50
2023-12-26T05:34:03.735Z,70.40
2023-12-26T05:36:30.780Z,69.69
2023-12-26T05:38:58.482Z,68.73
2023-12-26T05:41:26.320Z,68.98
2023-12-26T05:43:53.359Z,70.15
2023-12-26T05:46:21.605Z,68.51
2023-12-26T05:48:48.988Z,68.44
2023-12-26T05:51:15.951Z,68.11
2023-12-26T05:53:42.984Z,68.56
2023-12-26T05:56:09.810Z,69.41
2023-12-26T05:58:36.586Z,68.51
2023-12-26T06:01:03.421Z,68.41
2023-12-26T06:03:30.279Z,67.31
2023-12-26T06:05:57.067Z,68.35
2023-12-26T06:08:24.602Z,70.71
2023-12-26T06:10:51.369Z,68.83
2023-12-26T06:13:18.094Z,69.73
2023-12-26T06:15:46.975Z,68.56
2023-12-26T06:18:13.980Z,67.68
2023-12-26T06:20:40.739Z,69.04
2023-12-26T06:23:07.520Z,68.18
2023-12-26T06:25:34.253Z,68.31
2023-12-26T06:28:01.762Z,68.56
2023-12-26T06:30:28.584Z,70.27
2023-12-26T06:32:55.653Z,68.37
2023-12-26T06:35:22.557Z,68.93
2023-12-26T06:37:49.287Z,68.41
2023-12-26T06:40:16.005Z,67.25
2023-12-26T06:42:42.873Z,70.02
2023-12-26T06:45:09.796Z,69.17
2023-12-26T06:47:36.663Z,69.18
2023-12-26T06:50:03.404Z,69.50
2023-12-26T06:52:30.164Z,68.41
2023-12-26T06:54:57.300Z,67.52
2023-12-26T06:57:24.038Z,67.54
2023-12-26T06:59:53.289Z,69.11
2023-12-26T07:02:20.518Z,68.66
2023-12-26T07:04:47.236Z,70.10
2023-12-26T07:07:14.338Z,68.07
2023-12-26T07:09:41.043Z,68.40
2023-12-26T07:12:08.182Z,68.94
2023-12-26T07:14:34.987Z,67.36
2023-12-26T07:17:01.695Z,67.83
2023-12-26T07:19:28.496Z,68.07
2023-12-26T07:21:55.283Z,69.27
2023-12-26T07:24:22.097Z,68.61
2023-12-26T07:26:48.977Z,68.69
2023-12-26T07:29:15.764Z,68.56
2023-12-26T07:31:42.447Z,68.85
2023-12-26T07:34:12.355Z,69.15
2023-12-26T07:36:39.214Z,68.48
2023-12-26T07:39:06.485Z,69.21
2023-12-26T07:41:33.554Z,67.77
2023-12-26T07:44:00.483Z,68.24
2023-12-26T07:46:27.200Z,68.63
2023-12-26T07:48:54.154Z,69.78
2023-12-26T07:51:21.109Z,67.32
2023-12-26T07:53:48.765Z,69.39
2023-12-26T07:56:15.612Z,70.04
2023-12-26T07:58:42.287Z,69.30
2023-12-26T08:01:09.103Z,69.72
2023-12-26T08:03:35.906Z,70.07
2023-12-26T08:06:02.953Z,69.65
2023-12-26T08:08:29.713Z,69.70
2023-12-26T08:10:56.448Z,69.30
2023-12-26T08:13:23.130Z,69.06
2023-12-26T08:15:49.829Z,68.74
2023-12-26T08:18:16.761Z,69.54
2023-12-26T08:20:43.619Z,69.48
2023-12-26T08:23:10.393Z,71.31
2023-12-26T08:25:38.600Z,70.55
2023-12-26T08:28:05.884Z,70.62
2023-12-26T08:30:35.457Z,73.07
2023-12-26T08:33:05.591Z,71.58
2023-12-26T08:35:32.980Z,72.63
2023-12-26T08:37:59.660Z,72.52
2023-12-26T08:40:29.123Z,71.22
2023-12-26T08:42:56.129Z,70.79
2023-12-26T08:45:23.009Z,71.24
2023-12-26T08:47:51.054Z,71.95
2023-12-26T08:50:17.971Z,71.32
2023-12-26T08:52:44.759Z,71.26
2023-12-26T08:55:11.400Z,71.63
2023-12-26T08:57:38.177Z,71.39
2023-12-26T09:00:06.226Z,71.01
2023-12-26T09:02:32.980Z,72.04
2023-12-26T09:05:00.699Z,72.24
2023-12-26T09:07:27.716Z,72.80
2023-12-26T09:09:54.415Z,73.95
2023-12-26T09:12:21.274Z,73.73
2023-12-26T09:14:48.104Z,72.75
2023-12-26T09:17:14.915Z,72.20
2023-12-26T09:19:42.325Z,72.77
2023-12-26T09:22:09.377Z,71.64
2023-12-26T09:24:36.076Z,71.82
2023-12-26T09:27:02.877Z,71.55
2023-12-26T09:29:29.590Z,72.44
2023-12-26T09:31:56.310Z,71.06
2023-12-26T09:34:23.376Z,72.27
2023-12-26T09:36:50.199Z,72.67
2023-12-26T09:39:17.004Z,74.45
2023-12-26T09:41:44.524Z,74.08
2023-12-26T09:44:11.988Z,73.22
2023-12-26T09:46:38.909Z,73.46
2023-12-26T09:49:15.457Z,72.18
2023-12-26T09:51:46.935Z,71.58
2023-12-26T09:54:14.008Z,71.67
2023-12-26T09:56:44.017Z,72.15
2023-12-26T09:59:11.032Z,72.23
2023-12-26T10:01:37.711Z,72.49
2023-12-26T10:04:06.443Z,71.94
2023-12-26T10:06:33.383Z,72.85
2023-12-26T10:09:00.635Z,71.88
2023-12-26T10:11:28.678Z,71.56
2023-12-26T10:13:55.891Z,72.50
2023-12-26T10:16:22.812Z,71.63
2023-12-26T10:18:51.593Z,72.54
2023-12-26T10:21:18.728Z,73.65
2023-12-26T10:23:46.592Z,72.26
2023-12-26T10:26:13.299Z,71.78
2023-12-26T10:28:42.748Z,73.42
2023-12-26T10:31:14.955Z,72.63
2023-12-26T10:33:42.447Z,72.45
2023-12-26T10:36:12.029Z,72.37
2023-12-26T10:38:40.454Z,73.09
2023-12-26T10:41:09.693Z,74.83
2023-12-26T10:43:43.561Z,73.06
2023-12-26T10:46:10.562Z,71.74
2023-12-26T10:48:38.241Z,71.35
2023-12-26T10:51:07.078Z,69.84
2023-12-26T10:53:50.551Z,69.08
2023-12-26T10:56:18.790Z,68.77
2023-12-26T10:58:45.729Z,68.08
2023-12-26T11:02:14.392Z,66.10
2023-12-26T11:05:58.286Z,66.95
2023-12-26T11:09:40.004Z,66.36
2023-12-26T11:13:21.419Z,64.82
2023-12-26T11:17:03.305Z,64.51
2023-12-26T11:20:44.983Z,64.62
2023-12-26T11:24:26.697Z,65.48
2023-12-26T11:28:08.868Z,64.95
2023-12-26T11:31:50.713Z,66.80
2023-12-26T11:35:32.046Z,65.62
2023-12-26T11:39:14.162Z,65.67
2023-12-26T11:42:55.506Z,66.06
2023-12-26T11:46:37.108Z,67.81
2023-12-26T11:50:18.860Z,66.79
2023-12-26T11:54:00.908Z,66.64
2023-12-26T11:57:42.418Z,69.15
2023-12-26T12:01:24.220Z,68.09
2023-12-26T12:05:06.029Z,67.91
2023-12-26T12:08:47.675Z,67.22
2023-12-26T12:12:29.429Z,67.25
2023-12-26T12:16:11.118Z,67.74
2023-12-26T12:19:52.919Z,67.28
2023-12-26T12:23:34.789Z,68.22
2023-12-26T12:27:16.542Z,67.48
2023-12-26T12:30:57.834Z,67.83
2023-12-26T12:34:39.301Z,68.06
2023-12-26T12:38:21.186Z,67.88
2023-12-26T12:42:02.845Z,66.63
2023-12-26T12:45:44.743Z,68.79
2023-12-26T12:49:26.215Z,67.43
2023-12-26T12:53:07.837Z,67.83
2023-12-26T12:56:49.540Z,66.48
2023-12-26T13:00:31.247Z,66.64
2023-12-26T13:04:13.300Z,65.43
2023-12-26T13:07:54.536Z,66.50
2023-12-26T13:11:35.799Z,65.98
2023-12-26T13:15:17.841Z,66.68
2023-12-26T13:19:00.228Z,66.88
2023-12-26T13:22:41.599Z,66.42
2023-12-26T13:26:23.073Z,66.29
2023-12-26T13:30:04.968Z,65.02
2023-12-26T13:33:46.692Z,65.60
2023-12-26T13:37:28.331Z,65.01
2023-12-26T13:41:10.198Z,67.08
2023-12-26T13:44:52.135Z,66.24
2023-12-26T13:48:33.756Z,66.14
2023-12-26T13:51:56.369Z,66.03
2023-12-26T13:55:00.639Z,66.57
2023-12-26T13:57:27.431Z,65.37
2023-12-26T14:00:32.252Z,66.10
2023-12-26T14:02:59.432Z,65.91
2023-12-26T14:06:04.090Z,65.65
2023-12-26T14:08:30.877Z,66.42
2023-12-26T14:10:57.619Z,66.55
2023-12-26T14:14:01.996Z,67.13
2023-12-26T14:16:28.783Z,66.43
2023-12-26T14:18:55.645Z,67.00
2023-12-26T14:22:00.055Z,65.98
2023-12-26T14:24:26.823Z,66.63
2023-12-26T14:26:56.431Z,65.32
2023-12-26T14:30:00.681Z,65.93
2023-12-26T14:32:27.691Z,65.11
2023-12-26T14:35:31.884Z,65.36
2023-12-26T14:37:58.748Z,65.17
2023-12-26T14:41:03.569Z,65.96
2023-12-26T14:43:30.359Z,64.68
2023-12-26T14:46:34.499Z,65.89
2023-12-26T14:49:01.351Z,65.42
2023-12-26T14:52:05.435Z,66.32
2023-12-26T14:55:10.614Z,65.98
2023-12-26T14:57:38.004Z,66.48
2023-12-26T15:00:42.298Z,65.47
2023-12-26T15:03:09.687Z,65.12
2023-12-26T15:05:36.542Z,66.94
2023-12-26T15:08:04.259Z,66.38
2023-12-26T15:10:32.283Z,67.57
2023-12-26T15:13:01.435Z,67.49
2023-12-26T15:15:28.395Z,66.39
2023-12-26T15:17:55.831Z,66.63
2023-12-26T15:20:23.353Z,66.52
2023-12-26T15:22:50.769Z,65.25
2023-12-26T15:25:17.662Z,65.70
2023-12-26T15:27:44.549Z,64.46
2023-12-26T15:30:12.210Z,65.48
2023-12-26T15:32:39.348Z,64.68
2023-12-26T15:35:07.189Z,65.27
2023-12-26T15:37:34.820Z,64.93
2023-12-26T15:40:01.881Z,64.95
2023-12-26T15:42:29.410Z,64.67
2023-12-26T15:44:56.305Z,65.21
2023-12-26T15:47:23.625Z,64.85
2023-12-26T15:49:50.828Z,65.57
2023-12-26T15:52:17.771Z,65.60
2023-12-26T15:54:44.677Z,65.56
2023-12-26T15:57:11.598Z,66.09
2023-12-26T15:59:38.474Z,65.31
2023-12-26T16:02:06.082Z,64.82
2023-12-26T16:04:33.102Z,66.24
2023-12-26T16:07:00.080Z,66.36
2023-12-26T16:09:29.778Z,65.39
2023-12-26T16:11:57.672Z,65.60
2023-12-26T16:14:27.519Z,64.33
2023-12-26T16:16:54.595Z,66.11
2023-12-26T16:19:21.573Z,64.00
2023-12-26T16:21:48.506Z,64.07
2023-12-26T16:24:15.363Z,65.21
2023-12-26T16:26:47.377Z,64.89
2023-12-26T16:29:14.451Z,67.19
2023-12-26T16:31:41.368Z,66.46
2023-12-26T16:34:08.427Z,66.43
2023-12-26T16:36:35.453Z,66.66
2023-12-26T16:39:02.415Z,66.04
2023-12-26T16:41:29.340Z,65.79
2023-12-26T16:43:56.088Z,65.97
2023-12-26T16:46:23.038Z,65.98
2023-12-26T16:48:50.137Z,64.54
2023-12-26T16:51:17.184Z,65.68
2023-12-26T16:53:44.116Z,66.26
2023-12-26T16:56:11.795Z,65.07
2023-12-26T16:58:42.685Z,64.78
2023-12-26T17:01:10.655Z,64.96
2023-12-26T17:03:39.988Z,65.43
2023-12-26T17:06:07.301Z,64.27
2023-12-26T17:08:34.313Z,64.80
2023-12-26T17:11:03.927Z,64.60
2023-12-26T17:13:33.422Z,65.16
2023-12-26T17:16:00.240Z,65.11
2023-12-26T17:18:27.271Z,64.37
2023-12-26T17:20:54.174Z,64.34
2023-12-26T17:23:21.027Z,64.69
2023-12-26T17:25:47.910Z,65.23
2023-12-26T17:28:17.985Z,64.29
2023-12-26T17:30:45.960Z,65.47
2023-12-26T17:33:13.040Z,66.48
2023-12-26T17:35:39.904Z,67.20
2023-12-26T17:38:06.688Z,65.57
2023-12-26T17:40:33.792Z,64.61
2023-12-26T17:43:00.530Z,64.52
2023-12-26T17:45:29.990Z,64.99
2023-12-26T17:47:57.422Z,65.61
2023-12-26T17:50:24.550Z,65.57
2023-12-26T17:52:52.313Z,64.65
2023-12-26T17:55:20.634Z,63.90
2023-12-26T17:57:48.054Z,63.73
2023-12-26T18:00:15.324Z,63.89
2023-12-26T18:02:42.291Z,63.99
2023-12-26T18:05:09.439Z,65.09
2023-12-26T18:07:37.364Z,64.72
2023-12-26T18:10:04.605Z,65.34
2023-12-26T18:12:31.539Z,64.44
2023-12-26T18:14:58.636Z,64.99
2023-12-26T18:17:25.739Z,64.04
2023-12-26T18:19:55.693Z,63.02
2023-12-26T18:22:23.081Z,64.22
2023-12-26T18:24:50.678Z,64.86
2023-12-26T18:27:17.708Z,64.05
2023-12-26T18:29:44.512Z,64.81
2023-12-26T18:32:11.421Z,63.70
2023-12-26T18:34:38.623Z,65.90
2023-12-26T18:37:06.173Z,64.86
2023-12-26T18:39:34.303Z,65.43
2023-12-26T18:42:01.193Z,64.14
2023-12-26T18:44:28.256Z,63.73
2023-12-26T18:46:55.164Z,64.00
2023-12-26T18:49:22.012Z,64.13
2023-12-26T18:51:48.938Z,64.91
2023-12-26T18:54:15.852Z,64.14
2023-12-26T18:56:42.725Z,64.62
2023-12-26T18:59:09.981Z,64.89
2023-12-26T19:01:45.475Z,64.84
2023-12-26T19:04:12.751Z,65.01
2023-12-26T19:06:40.040Z,64.37
2023-12-26T19:09:07.703Z,64.38
2023-12-26T19:11:34.513Z,64.42
2023-12-26T19:14:01.358Z,63.65
2023-12-26T19:16:28.365Z,64.21
2023-12-26T19:18:55.292Z,63.75
2023-12-26T19:21:22.178Z,64.69
2023-12-26T19:23:49.131Z,64.97
2023-12-26T19:26:15.990Z,62.24
2023-12-26T19:28:42.920Z,65.43
2023-12-26T19:31:14.555Z,64.18
2023-12-26T19:33:41.618Z,64.73
2023-12-26T19:36:09.067Z,64.69
2023-12-26T19:38:39.958Z,63.65
2023-12-26T19:41:07.156Z,63.41
2023-12-26T19:43:34.025Z,64.30
2023-12-26T19:46:00.940Z,63.75
2023-12-26T19:48:28.258Z,64.80
2023-12-26T19:50:55.491Z,63.76
2023-12-26T19:53:22.464Z,64.91
2023-12-26T19:55:49.581Z,64.31
2023-12-26T19:58:16.391Z,63.41
2023-12-26T20:00:43.326Z,63.64
2023-12-26T20:03:18.696Z,64.64
2023-12-26T20:05:58.466Z,63.86
2023-12-26T20:08:26.318Z,64.57
2023-12-26T20:10:53.141Z,64.43
2023-12-26T20:13:20.267Z,64.72
2023-12-26T20:15:47.251Z,65.42
2023-12-26T20:18:14.262Z,64.45
2023-12-26T20:20:41.105Z,63.75
2023-12-26T20:23:09.007Z,63.99
2023-12-26T20:25:35.832Z,64.20
2023-12-26T20:28:08.468Z,66.33
2023-12-26T20:30:35.853Z,65.01
2023-12-26T20:33:04.424Z,64.85
2023-12-26T20:35:31.308Z,64.39
2023-12-26T20:37:58.382Z,64.14
2023-12-26T20:40:25.402Z,63.34
2023-12-26T20:42:52.241Z,63.36
2023-12-26T20:45:19.141Z,64.12
2023-12-26T20:47:46.027Z,63.13
2023-12-26T20:50:12.931Z,62.85
2023-12-26T20:52:39.664Z,63.50
2023-12-26T20:55:07.925Z,63.34
2023-12-26T20:57:34.757Z,63.14
2023-12-26T21:00:01.828Z,64.96
2023-12-26T21:02:28.806Z,64.57
2023-12-26T21:04:55.584Z,65.97
2023-12-26T21:07:22.833Z,64.62
2023-12-26T21:09:49.697Z,66.37
2023-12-26T21:12:16.495Z,63.92
2023-12-26T21:14:43.310Z,63.57
2023-12-26T21:17:10.985Z,62.95
2023-12-26T21:19:39.896Z,64.31
2023-12-26T21:22:08.709Z,65.95
2023-12-26T21:24:35.624Z,63.55
2023-12-26T21:27:02.455Z,64.60
2023-12-26T21:29:29.544Z,65.28
2023-12-26T21:31:56.299Z,64.05
2023-12-26T21:34:23.180Z,63.67
2023-12-26T21:36:49.951Z,64.72
2023-12-26T21:39:19.765Z,64.22
2023-12-26T21:41:46.631Z,63.44
2023-12-26T21:44:15.121Z,63.06
2023-12-26T21:46:46.323Z,62.92
2023-12-26T21:49:14.547Z,65.03
2023-12-26T21:51:41.658Z,66.14
2023-12-26T21:54:08.676Z,65.91
2023-12-26T21:56:35.469Z,65.06
2023-12-26T21:59:02.241Z,65.22
2023-12-26T22:01:31.189Z,64.92
2023-12-26T22:03:59.126Z,64.20
2023-12-26T22:06:26.234Z,65.47
2023-12-26T22:08:53.224Z,65.99
2023-12-26T22:11:20.808Z,66.59
2023-12-26T22:13:47.780Z,66.66
2023-12-26T22:16:23.442Z,65.73
2023-12-26T22:18:54.077Z,65.04
2023-12-26T22:21:21.983Z,64.61
2023-12-26T22:23:48.810Z,66.33
2023-12-26T22:26:15.588Z,65.73
2023-12-26T22:28:42.393Z,66.82
2023-12-26T22:31:20.386Z,65.38
2023-12-26T22:33:52.526Z,66.47
2023-12-26T22:36:20.138Z,67.24
2023-12-26T22:38:46.941Z,66.64
2023-12-26T22:41:19.938Z,65.97
2023-12-26T22:43:46.820Z,66.29
2023-12-26T22:46:23.755Z,66.87
2023-12-26T22:48:54.572Z,66.12
2023-12-26T22:51:22.142Z,66.94
2023-12-26T22:53:49.197Z,67.63
2023-12-26T22:56:16.141Z,68.06
2023-12-26T22:58:43.342Z,67.63
2023-12-26T23:01:10.701Z,67.94
2023-12-26T23:03:39.066Z,68.53
2023-12-26T23:06:06.002Z,67.26
2023-12-26T23:08:32.882Z,67.01
2023-12-26T23:10:59.668Z,66.49
2023-12-26T23:13:26.698Z,67.64
2023-12-26T23:15:53.942Z,67.95
2023-12-26T23:18:20.813Z,68.85
2023-12-26T23:20:47.645Z,67.31
2023-12-26T23:23:14.498Z,68.17
2023-12-26T23:25:41.360Z,67.98
2023-12-26T23:28:08.226Z,67.48
2023-12-26T23:30:35.052Z,67.58
2023-12-26T23:33:02.026Z,67.97
2023-12-26T23:35:28.908Z,67.81
2023-12-26T23:37:56.001Z,67.79
2023-12-26T23:40:22.921Z,68.65
2023-12-26T23:42:49.641Z,68.01
2023-12-26T23:45:16.488Z,67.33
2023-12-26T23:47:44.788Z,67.96
2023-12-26T23:50:11.690Z,70.60
2023-12-26T23:52:42.092Z,70.47
2023-12-26T23:55:11.214Z,70.38
2023-12-26T23:57:38.096Z,69.23
